Prescott, Canada
Current Conditions -  °F | °C
As of 7:53 PM on Friday 31 Oct 2014 (Local Time) from KMSS Reporting Station
Overcast Overcast  
Wind Chill: 35°   Ceiling: 7000
Heat Index: 41°   Visibility: 10mi
Dew Point: 26°   Wind: 9mph
Humidity: 55%   Direction: 50°NE
Pressure: 30.08"   Gusts: NA
Location:  44.72°N, 75.52°W
Report Text: KMSS 312353Z AUTO 05008KT 10SM BKN070 OVC080 05/M03 A3008 RMK AO2 SLP191 T00501033 10083 20044 53012
Loading
Personal Weather Stations






























Interactive Weather Map
Tropical Storm Tracking
New forecast layout! Learn more

10-Day Weather Forecast

Advertisements
Track Severe Weather on mobile